createdAt,value
2023-04-10T00:00:06.775Z,24.85
2023-04-10T00:02:54.150Z,29.58
2023-04-10T00:05:22.005Z,26.75
2023-04-10T00:07:49.053Z,37.25
2023-04-10T00:10:16.909Z,26.17
2023-04-10T00:12:43.978Z,24.60
2023-04-10T00:15:11.539Z,29.05
2023-04-10T00:17:39.046Z,29.35
2023-04-10T00:20:07.158Z,29.15
2023-04-10T00:22:34.278Z,29.75
2023-04-10T00:25:01.678Z,20.02
2023-04-10T00:27:28.877Z,22.42
2023-04-10T00:29:56.441Z,26.08
2023-04-10T00:32:24.082Z,23.13
2023-04-10T00:34:51.665Z,21.80
2023-04-10T00:37:19.012Z,20.50
2023-04-10T00:39:46.356Z,26.63
2023-04-10T00:42:13.609Z,28.45
2023-04-10T00:44:41.564Z,28.00
2023-04-10T00:47:08.647Z,28.08
2023-04-10T00:49:36.293Z,32.30
2023-04-10T00:52:03.520Z,33.08
2023-04-10T00:54:31.774Z,30.92
2023-04-10T00:56:59.018Z,32.88
2023-04-10T00:59:26.648Z,29.65
2023-04-10T01:01:53.874Z,29.02
2023-04-10T01:04:22.644Z,28.20
2023-04-10T01:07:00.692Z,25.88
2023-04-10T01:09:59.236Z,24.45
2023-04-10T01:12:57.975Z,25.88
2023-04-10T01:15:29.443Z,26.88
2023-04-10T01:18:18.576Z,30.98
2023-04-10T01:20:46.078Z,33.08
2023-04-10T01:23:25.541Z,27.83
2023-04-10T01:25:57.161Z,28.15
2023-04-10T01:28:49.323Z,26.88
2023-04-10T01:31:21.528Z,25.37
2023-04-10T01:33:51.071Z,29.38
2023-04-10T01:36:41.851Z,34.13
2023-04-10T01:39:09.897Z,33.53
2023-04-10T01:41:38.762Z,29.90
2023-04-10T01:44:06.406Z,32.08
2023-04-10T01:46:34.311Z,31.38
2023-04-10T01:49:02.649Z,28.33
2023-04-10T01:51:31.442Z,39.20
2023-04-10T01:54:01.673Z,27.95
2023-04-10T01:56:29.707Z,29.70
2023-04-10T01:58:57.374Z,43.50
2023-04-10T02:01:29.722Z,30.23
2023-04-10T02:03:59.340Z,42.67
2023-04-10T02:06:50.071Z,35.40
2023-04-10T02:09:29.406Z,32.45
2023-04-10T02:12:07.225Z,32.83
2023-04-10T02:14:37.314Z,29.75
2023-04-10T02:17:05.099Z,28.42
2023-04-10T02:19:33.222Z,26.05
2023-04-10T02:22:00.829Z,28.13
2023-04-10T02:24:28.504Z,26.85
2023-04-10T02:26:56.568Z,28.08
2023-04-10T02:29:23.864Z,30.95
2023-04-10T02:31:51.341Z,32.58
2023-04-10T02:34:19.771Z,31.23
2023-04-10T02:36:47.149Z,35.22
2023-04-10T02:39:14.478Z,41.50
2023-04-10T02:41:48.802Z,42.00
2023-04-10T02:44:16.338Z,41.17
2023-04-10T02:46:44.575Z,36.33
2023-04-10T02:49:12.978Z,36.38
2023-04-10T02:51:40.715Z,38.35
2023-04-10T02:54:07.799Z,50.58
2023-04-10T02:56:36.517Z,36.63
2023-04-10T02:59:03.843Z,36.70
2023-04-10T03:01:32.239Z,35.88
2023-04-10T03:04:00.512Z,36.60
2023-04-10T03:06:31.852Z,45.05
2023-04-10T03:08:59.506Z,45.95
2023-04-10T03:11:28.281Z,36.55
2023-04-10T03:13:58.313Z,39.88
2023-04-10T03:16:26.567Z,37.25
2023-04-10T03:18:54.057Z,36.38
2023-04-10T03:21:22.078Z,41.25
2023-04-10T03:23:49.761Z,39.70
2023-04-10T03:26:17.178Z,42.95
2023-04-10T03:28:44.413Z,47.60
2023-04-10T03:31:12.662Z,36.05
2023-04-10T03:33:42.485Z,42.33
2023-04-10T03:36:11.623Z,38.53
2023-04-10T03:38:38.981Z,30.90
2023-04-10T03:41:09.251Z,31.95
2023-04-10T03:43:36.734Z,31.40
2023-04-10T03:46:05.826Z,32.90
2023-04-10T03:48:36.560Z,31.88
2023-04-10T03:51:04.149Z,29.83
2023-04-10T03:53:36.203Z,33.90
2023-04-10T03:56:08.732Z,33.70
2023-04-10T03:58:36.698Z,33.30
2023-04-10T04:01:05.455Z,33.63
2023-04-10T04:03:39.669Z,42.17
2023-04-10T04:06:27.518Z,38.72
2023-04-10T04:09:21.895Z,40.10
2023-04-10T04:12:08.193Z,35.58
2023-04-10T04:14:53.724Z,45.88
2023-04-10T04:17:37.342Z,40.30
2023-04-10T04:20:06.247Z,38.03
2023-04-10T04:22:51.954Z,40.42
2023-04-10T04:25:39.343Z,40.80
2023-04-10T04:28:30.453Z,64.85
2023-04-10T04:31:16.839Z,114.13
2023-04-10T04:34:04.693Z,46.97
2023-04-10T04:36:50.641Z,44.67
2023-04-10T04:39:36.496Z,46.92
2023-04-10T04:42:21.869Z,44.50
2023-04-10T04:45:15.520Z,41.63
2023-04-10T04:48:01.036Z,36.70
2023-04-10T04:50:47.136Z,34.53
2023-04-10T04:53:37.637Z,40.75
2023-04-10T04:56:25.735Z,40.25
2023-04-10T04:59:19.240Z,43.47
2023-04-10T05:02:05.702Z,46.92
2023-04-10T05:04:51.784Z,46.58
2023-04-10T05:07:29.779Z,44.80
2023-04-10T05:10:17.384Z,46.95
2023-04-10T05:13:08.002Z,49.20
2023-04-10T05:15:45.427Z,47.47
2023-04-10T05:18:31.697Z,37.63
2023-04-10T05:21:07.376Z,33.70
2023-04-10T05:23:44.821Z,25.77
2023-04-10T05:26:28.880Z,22.15
2023-04-10T05:29:14.918Z,17.58
2023-04-10T05:32:00.667Z,17.02
2023-04-10T05:34:46.554Z,15.13
2023-04-10T05:37:34.123Z,76.55
2023-04-10T05:40:22.201Z,37.38
2023-04-10T05:43:08.589Z,47.85
2023-04-10T05:45:54.531Z,37.70
2023-04-10T05:48:42.070Z,47.83
2023-04-10T05:51:21.135Z,31.38
2023-04-10T05:54:11.503Z,24.15
2023-04-10T05:56:48.837Z,16.73
2023-04-10T05:59:39.195Z,15.38
2023-04-10T06:02:30.292Z,16.52
2023-04-10T06:04:57.819Z,15.60
2023-04-10T06:07:25.636Z,16.20
2023-04-10T06:09:52.966Z,17.40
2023-04-10T06:12:20.641Z,34.67
2023-04-10T06:14:48.347Z,20.65
2023-04-10T06:17:21.388Z,16.15
2023-04-10T06:19:49.035Z,16.00
2023-04-10T06:22:18.121Z,15.02
2023-04-10T06:24:45.456Z,14.90
2023-04-10T06:27:12.988Z,14.70
2023-04-10T06:29:40.947Z,14.23
2023-04-10T06:32:08.431Z,14.88
2023-04-10T06:34:38.190Z,16.27
2023-04-10T06:37:08.099Z,13.98
2023-04-10T06:39:37.554Z,14.73
2023-04-10T06:42:05.034Z,14.95
2023-04-10T06:44:55.931Z,12.25
2023-04-10T06:47:24.827Z,11.20
2023-04-10T06:49:52.222Z,11.55
2023-04-10T06:52:19.859Z,10.13
2023-04-10T06:54:47.076Z,10.63
2023-04-10T06:57:14.544Z,10.50
2023-04-10T06:59:42.143Z,13.07
2023-04-10T07:02:09.660Z,13.10
2023-04-10T07:04:37.057Z,13.75
2023-04-10T07:07:05.408Z,10.70
2023-04-10T07:09:32.541Z,12.15
2023-04-10T07:12:00.197Z,11.68
2023-04-10T07:14:27.361Z,12.63
2023-04-10T07:16:54.796Z,11.63
2023-04-10T07:19:21.945Z,10.68
2023-04-10T07:21:50.293Z,10.73
2023-04-10T07:24:17.980Z,9.77
2023-04-10T07:26:46.376Z,9.02
2023-04-10T07:29:14.278Z,9.23
2023-04-10T07:31:42.085Z,10.63
2023-04-10T07:34:11.326Z,11.35
2023-04-10T07:36:38.991Z,9.55
2023-04-10T07:39:06.255Z,9.55
2023-04-10T07:41:33.828Z,9.90
2023-04-10T07:44:01.232Z,10.32
2023-04-10T07:46:28.728Z,8.60
2023-04-10T07:48:56.180Z,9.68
2023-04-10T07:51:24.041Z,8.23
2023-04-10T07:53:51.473Z,7.55
2023-04-10T07:56:19.725Z,7.53
2023-04-10T07:58:47.582Z,6.90
2023-04-10T08:01:15.920Z,7.20
2023-04-10T08:03:45.233Z,7.55
2023-04-10T08:06:13.064Z,8.70
2023-04-10T08:08:41.232Z,8.07
2023-04-10T08:11:23.592Z,8.38
2023-04-10T08:13:52.124Z,7.25
2023-04-10T08:16:24.083Z,7.43
2023-04-10T08:18:53.168Z,7.82
2023-04-10T08:21:22.344Z,8.07
2023-04-10T08:23:57.134Z,7.35
2023-04-10T08:26:25.623Z,7.25
2023-04-10T08:28:54.464Z,7.47
2023-04-10T08:31:23.617Z,6.75
2023-04-10T08:33:52.149Z,7.43
2023-04-10T08:36:20.644Z,8.25
2023-04-10T08:38:48.764Z,6.85
2023-04-10T08:41:18.182Z,7.47
2023-04-10T08:43:46.433Z,6.72
2023-04-10T08:46:15.146Z,6.70
2023-04-10T08:49:03.934Z,7.07
2023-04-10T08:51:40.078Z,6.72
2023-04-10T08:54:08.665Z,7.38
2023-04-10T08:56:36.340Z,6.40
2023-04-10T08:59:03.818Z,5.60
2023-04-10T09:01:31.655Z,6.22
2023-04-10T09:03:59.932Z,5.85
2023-04-10T09:06:27.749Z,5.30
2023-04-10T09:08:55.085Z,5.50
2023-04-10T09:11:22.460Z,5.63
2023-04-10T09:13:49.639Z,5.50
2023-04-10T09:16:17.090Z,5.00
2023-04-10T09:18:50.049Z,5.60
2023-04-10T09:21:19.574Z,5.50
2023-04-10T09:23:48.364Z,5.18
2023-04-10T09:26:29.851Z,6.13
2023-04-10T09:29:02.297Z,5.22
2023-04-10T09:31:34.554Z,5.68
2023-04-10T09:34:23.487Z,5.75
2023-04-10T09:37:03.323Z,5.25
2023-04-10T09:39:43.166Z,4.18
2023-04-10T09:42:14.942Z,4.90
2023-04-10T09:44:43.049Z,5.28
2023-04-10T09:47:23.177Z,4.95
2023-04-10T09:50:01.002Z,4.90
2023-04-10T09:52:30.279Z,5.03
2023-04-10T09:55:04.055Z,4.47
2023-04-10T09:57:33.057Z,4.45
2023-04-10T10:00:02.168Z,4.55
2023-04-10T10:02:37.196Z,4.45
2023-04-10T10:05:05.592Z,4.75
2023-04-10T10:07:33.209Z,4.38
2023-04-10T10:10:03.177Z,4.53
2023-04-10T10:12:37.263Z,4.47
2023-04-10T10:15:26.202Z,4.13
2023-04-10T10:17:56.541Z,4.18
2023-04-10T10:20:25.602Z,3.30
2023-04-10T10:22:53.082Z,4.78
2023-04-10T10:25:21.081Z,4.35
2023-04-10T10:27:50.303Z,4.70
2023-04-10T10:30:28.793Z,3.92
2023-04-10T10:32:59.119Z,4.47
2023-04-10T10:35:29.326Z,4.70
2023-04-10T10:38:00.853Z,4.22
2023-04-10T10:40:37.056Z,3.47
2023-04-10T10:43:34.276Z,4.35
2023-04-10T10:46:07.783Z,4.38
2023-04-10T10:48:35.188Z,4.20
2023-04-10T10:51:03.639Z,4.38
2023-04-10T10:53:46.870Z,4.70
2023-04-10T10:56:20.024Z,4.78
2023-04-10T10:58:49.022Z,4.68
2023-04-10T11:01:16.869Z,4.57
2023-04-10T11:03:47.209Z,4.97
2023-04-10T11:06:21.929Z,5.15
2023-04-10T11:08:51.612Z,5.15
2023-04-10T11:11:27.376Z,4.90
2023-04-10T11:13:57.729Z,5.30
2023-04-10T11:16:44.103Z,4.93
2023-04-10T11:19:19.055Z,4.80
2023-04-10T11:22:08.330Z,5.00
2023-04-10T11:24:54.815Z,4.45
2023-04-10T11:27:41.795Z,5.35
2023-04-10T11:30:29.153Z,4.50
2023-04-10T11:32:56.992Z,4.45
2023-04-10T11:35:26.006Z,4.40
2023-04-10T11:38:07.842Z,4.13
2023-04-10T11:40:35.483Z,3.88
2023-04-10T11:43:21.524Z,4.35
2023-04-10T11:45:49.182Z,4.22
2023-04-10T11:48:17.458Z,4.07
2023-04-10T11:50:44.936Z,3.80
2023-04-10T11:53:21.791Z,4.22
2023-04-10T11:55:49.224Z,4.15
2023-04-10T11:58:35.281Z,4.68
2023-04-10T12:01:04.513Z,3.78
2023-04-10T12:03:37.186Z,3.65
2023-04-10T12:06:07.688Z,4.10
2023-04-10T12:08:36.438Z,4.10
2023-04-10T12:11:04.123Z,3.95
2023-04-10T12:13:32.291Z,4.18
2023-04-10T12:16:05.682Z,4.32
2023-04-10T12:18:33.210Z,4.03
2023-04-10T12:21:01.074Z,4.00
2023-04-10T12:23:29.542Z,4.15
2023-04-10T12:26:16.480Z,3.88
2023-04-10T12:28:58.145Z,3.83
2023-04-10T12:31:37.094Z,3.85
2023-04-10T12:34:05.766Z,3.85
2023-04-10T12:36:35.311Z,3.05
2023-04-10T12:39:04.182Z,3.20
2023-04-10T12:41:33.855Z,3.28
2023-04-10T12:44:12.457Z,3.78
2023-04-10T12:46:41.431Z,3.58
2023-04-10T12:49:16.060Z,3.28
2023-04-10T12:51:47.598Z,3.42
2023-04-10T12:54:34.960Z,3.58
2023-04-10T12:57:04.215Z,3.78
2023-04-10T12:59:31.718Z,3.42
2023-04-10T13:01:59.420Z,3.67
2023-04-10T13:04:27.167Z,3.47
2023-04-10T13:06:54.800Z,3.33
2023-04-10T13:09:22.440Z,3.50
2023-04-10T13:11:52.184Z,3.35
2023-04-10T13:14:19.770Z,3.65
2023-04-10T13:16:47.272Z,3.83
2023-04-10T13:19:14.520Z,3.65
2023-04-10T13:21:41.905Z,3.70
2023-04-10T13:24:09.152Z,3.85
2023-04-10T13:26:36.474Z,3.80
2023-04-10T13:29:03.727Z,4.40
2023-04-10T13:31:31.348Z,4.30
2023-04-10T13:33:58.463Z,3.75
2023-04-10T13:36:26.936Z,4.32
2023-04-10T13:38:54.547Z,3.85
2023-04-10T13:41:23.772Z,4.10
2023-04-10T13:43:50.994Z,4.00
2023-04-10T13:46:18.844Z,3.50
2023-04-10T13:48:45.971Z,3.17
2023-04-10T13:51:13.327Z,3.60
2023-04-10T13:53:40.775Z,3.47
2023-04-10T13:56:08.667Z,3.60
2023-04-10T13:58:35.986Z,3.47
2023-04-10T14:01:03.602Z,3.60
2023-04-10T14:03:31.291Z,3.35
2023-04-10T14:05:58.739Z,3.97
2023-04-10T14:08:25.868Z,3.58
2023-04-10T14:10:53.402Z,3.72
2023-04-10T14:13:20.960Z,3.58
2023-04-10T14:15:48.470Z,3.22
2023-04-10T14:18:18.425Z,3.00
2023-04-10T14:20:45.927Z,2.90
2023-04-10T14:23:18.415Z,3.00
2023-04-10T14:25:46.551Z,2.97
2023-04-10T14:28:17.992Z,2.80
2023-04-10T14:30:46.233Z,3.35
2023-04-10T14:33:13.348Z,3.50
2023-04-10T14:35:41.172Z,4.47
2023-04-10T14:38:08.448Z,3.70
2023-04-10T14:40:36.977Z,4.10
2023-04-10T14:43:04.216Z,3.53
2023-04-10T14:45:32.683Z,3.35
2023-04-10T14:47:59.940Z,3.83
2023-04-10T14:50:27.572Z,3.90
2023-04-10T14:52:54.706Z,3.67
2023-04-10T14:55:22.045Z,3.22
2023-04-10T14:57:49.179Z,3.30
2023-04-10T15:00:17.003Z,3.28
2023-04-10T15:02:45.274Z,3.42
2023-04-10T15:05:13.449Z,4.05
2023-04-10T15:07:40.574Z,3.70
2023-04-10T15:10:10.640Z,3.60
2023-04-10T15:12:38.110Z,4.03
2023-04-10T15:15:06.521Z,3.38
2023-04-10T15:17:33.818Z,3.42
2023-04-10T15:20:01.227Z,3.85
2023-04-10T15:22:29.537Z,4.22
2023-04-10T15:24:57.037Z,4.40
2023-04-10T15:27:25.016Z,3.45
2023-04-10T15:29:52.445Z,3.60
2023-04-10T15:32:19.698Z,3.55
2023-04-10T15:34:47.167Z,3.80
2023-04-10T15:37:14.347Z,4.00
2023-04-10T15:39:41.721Z,3.88
2023-04-10T15:42:09.028Z,3.67
2023-04-10T15:44:36.456Z,3.80
2023-04-10T15:47:03.836Z,4.53
2023-04-10T15:49:37.835Z,4.05
2023-04-10T15:52:06.712Z,4.05
2023-04-10T15:54:35.047Z,3.70
2023-04-10T15:57:03.783Z,3.60
2023-04-10T15:59:32.821Z,3.33
2023-04-10T16:01:59.955Z,3.40
2023-04-10T16:04:27.787Z,3.75
2023-04-10T16:06:56.694Z,4.20
2023-04-10T16:09:26.646Z,3.65
2023-04-10T16:11:55.021Z,3.33
2023-04-10T16:14:22.815Z,3.45
2023-04-10T16:16:51.142Z,3.78
2023-04-10T16:19:18.561Z,7.65
2023-04-10T16:21:45.960Z,3.33
2023-04-10T16:24:13.484Z,4.25
2023-04-10T16:26:40.761Z,4.85
2023-04-10T16:29:08.203Z,3.22
2023-04-10T16:31:35.562Z,3.55
2023-04-10T16:34:03.458Z,3.60
2023-04-10T16:36:58.236Z,3.58
2023-04-10T16:39:25.869Z,3.88
2023-04-10T16:41:53.176Z,3.45
2023-04-10T16:44:20.741Z,3.40
2023-04-10T16:46:47.974Z,3.78
2023-04-10T16:49:15.732Z,3.65
2023-04-10T16:51:42.876Z,3.58
2023-04-10T16:54:10.489Z,3.70
2023-04-10T16:56:37.642Z,3.85
2023-04-10T16:59:05.249Z,4.45
2023-04-10T17:01:35.230Z,4.15
2023-04-10T17:04:02.712Z,3.58
2023-04-10T17:06:30.092Z,3.78
2023-04-10T17:08:58.077Z,3.67
2023-04-10T17:11:25.496Z,4.50
2023-04-10T17:13:52.825Z,3.72
2023-04-10T17:16:20.121Z,4.47
2023-04-10T17:18:48.927Z,4.30
2023-04-10T17:21:16.256Z,3.97
2023-04-10T17:23:43.839Z,4.55
2023-04-10T17:26:15.968Z,4.60
2023-04-10T17:28:45.298Z,4.50
2023-04-10T17:31:13.430Z,4.70
2023-04-10T17:33:43.732Z,5.03
2023-04-10T17:36:12.642Z,5.13
2023-04-10T17:38:42.113Z,4.65
2023-04-10T17:41:10.015Z,4.47
2023-04-10T17:43:37.736Z,4.68
2023-04-10T17:46:05.839Z,6.38
2023-04-10T17:48:34.564Z,6.80
2023-04-10T17:51:06.721Z,5.93
2023-04-10T17:53:34.216Z,5.50
2023-04-10T17:56:01.827Z,5.88
2023-04-10T17:58:29.584Z,5.80
2023-04-10T18:00:56.902Z,5.97
2023-04-10T18:03:24.610Z,6.10
2023-04-10T18:05:52.020Z,6.20
2023-04-10T18:08:19.805Z,6.18
2023-04-10T18:10:47.199Z,6.72
2023-04-10T18:13:14.791Z,6.88
2023-04-10T18:15:42.162Z,7.10
2023-04-10T18:18:09.924Z,6.97
2023-04-10T18:20:37.270Z,7.55
2023-04-10T18:23:06.549Z,6.07
2023-04-10T18:25:34.666Z,6.57
2023-04-10T18:30:32.638Z,7.90
2023-04-10T18:33:00.166Z,8.77
2023-04-10T18:35:28.280Z,8.65
2023-04-10T18:37:57.166Z,8.18
2023-04-10T18:40:24.664Z,7.43
2023-04-10T18:42:52.055Z,6.32
2023-04-10T18:45:19.796Z,7.45
2023-04-10T18:47:47.191Z,8.68
2023-04-10T18:50:14.573Z,8.70
2023-04-10T18:52:42.075Z,8.77
2023-04-10T18:55:09.549Z,10.00
2023-04-10T18:57:37.267Z,9.98
2023-04-10T19:00:06.911Z,8.52
2023-04-10T19:02:34.659Z,8.05
2023-04-10T19:05:02.196Z,9.95
2023-04-10T19:07:30.045Z,10.52
2023-04-10T19:09:57.327Z,24.45
2023-04-10T19:12:24.954Z,29.48
2023-04-10T19:14:52.112Z,29.55
2023-04-10T19:17:21.896Z,28.15
2023-04-10T19:19:49.265Z,25.33
2023-04-10T19:22:17.251Z,44.75
2023-04-10T19:24:44.561Z,27.10
2023-04-10T19:27:12.413Z,24.13
2023-04-10T19:29:39.730Z,24.23
2023-04-10T19:32:07.249Z,26.23
2023-04-10T19:34:34.591Z,26.25
2023-04-10T19:37:02.440Z,26.17
2023-04-10T19:39:29.544Z,23.08
2023-04-10T19:41:57.738Z,14.35
2023-04-10T19:44:24.963Z,20.17
2023-04-10T19:46:52.425Z,14.00
2023-04-10T19:49:19.823Z,15.75
2023-04-10T19:51:47.630Z,12.52
2023-04-10T19:54:14.759Z,13.20
2023-04-10T19:56:42.747Z,12.85
2023-04-10T19:59:10.080Z,12.55
2023-04-10T20:01:37.739Z,12.27
2023-04-10T20:04:05.267Z,15.02
2023-04-10T20:06:33.241Z,14.73
2023-04-10T20:09:00.816Z,15.00
2023-04-10T20:11:30.701Z,14.57
2023-04-10T20:13:58.130Z,14.77
2023-04-10T20:16:27.037Z,14.43
2023-04-10T20:18:55.608Z,16.35
2023-04-10T20:21:23.415Z,14.73
2023-04-10T20:23:50.901Z,15.82
2023-04-10T20:26:18.574Z,15.48
2023-04-10T20:28:45.751Z,15.80
2023-04-10T20:31:13.328Z,16.00
2023-04-10T20:33:40.949Z,15.88
2023-04-10T20:36:08.952Z,17.13
2023-04-10T20:38:36.734Z,16.27
2023-04-10T20:41:04.529Z,17.67
2023-04-10T20:43:32.200Z,17.02
2023-04-10T20:46:07.989Z,19.08
2023-04-10T20:48:38.708Z,16.73
2023-04-10T20:51:06.687Z,16.63
2023-04-10T20:53:34.175Z,16.92
2023-04-10T20:56:03.051Z,18.42
2023-04-10T20:58:32.078Z,16.85
2023-04-10T21:00:59.475Z,18.17
2023-04-10T21:03:26.786Z,17.98
2023-04-10T21:05:54.309Z,26.38
2023-04-10T21:08:21.967Z,28.23
2023-04-10T21:10:49.522Z,21.30
2023-04-10T21:13:16.836Z,21.98
2023-04-10T21:15:44.184Z,22.30
2023-04-10T21:18:11.508Z,21.67
2023-04-10T21:20:39.314Z,23.08
2023-04-10T21:23:06.500Z,22.00
2023-04-10T21:25:35.432Z,20.58
2023-04-10T21:28:02.759Z,18.95
2023-04-10T21:30:30.433Z,20.40
2023-04-10T21:32:57.846Z,21.42
2023-04-10T21:35:25.438Z,19.50
2023-04-10T21:37:58.905Z,20.48
2023-04-10T21:40:34.317Z,29.77
2023-04-10T21:43:02.431Z,33.55
2023-04-10T21:45:30.952Z,32.72
2023-04-10T21:47:59.987Z,26.98
2023-04-10T21:50:27.503Z,32.45
2023-04-10T21:52:54.723Z,28.40
2023-04-10T21:55:22.161Z,29.63
2023-04-10T21:57:49.210Z,29.13
2023-04-10T22:00:17.088Z,26.42
2023-04-10T22:02:45.153Z,29.88
2023-04-10T22:05:15.573Z,31.50
2023-04-10T22:07:42.888Z,32.20
2023-04-10T22:10:10.462Z,29.85
2023-04-10T22:12:37.791Z,26.92
2023-04-10T22:15:07.915Z,25.55
2023-04-10T22:17:35.098Z,30.27
2023-04-10T22:20:02.469Z,28.13
2023-04-10T22:22:29.668Z,28.67
2023-04-10T22:24:57.011Z,28.50
2023-04-10T22:27:24.220Z,27.67
2023-04-10T22:30:02.158Z,26.35
2023-04-10T22:32:31.050Z,27.02
2023-04-10T22:34:59.669Z,24.63
2023-04-10T22:37:27.693Z,23.42
2023-04-10T22:39:56.384Z,23.40
2023-04-10T22:42:24.294Z,23.75
2023-04-10T22:44:51.737Z,24.65
2023-04-10T22:47:19.177Z,26.10
2023-04-10T22:49:46.620Z,25.35
2023-04-10T22:52:13.727Z,24.35
2023-04-10T22:54:41.072Z,22.98
2023-04-10T22:57:08.553Z,24.58
2023-04-10T22:59:37.086Z,24.67
2023-04-10T23:02:04.516Z,25.00
2023-04-10T23:04:32.151Z,24.55
2023-04-10T23:06:59.357Z,23.58
2023-04-10T23:09:26.809Z,25.67
2023-04-10T23:11:53.949Z,23.40
2023-04-10T23:14:21.474Z,25.42
2023-04-10T23:16:49.618Z,25.35
2023-04-10T23:19:18.517Z,24.00
2023-04-10T23:21:45.866Z,23.65
2023-04-10T23:24:13.398Z,22.95
2023-04-10T23:26:40.712Z,24.30
2023-04-10T23:29:08.428Z,23.90
2023-04-10T23:31:35.696Z,23.27
2023-04-10T23:34:03.707Z,24.27
2023-04-10T23:36:31.736Z,25.20
2023-04-10T23:38:59.478Z,25.38
2023-04-10T23:41:26.846Z,26.27
2023-04-10T23:43:54.598Z,26.27
2023-04-10T23:46:22.070Z,25.50
2023-04-10T23:48:49.763Z,25.73
2023-04-10T23:51:17.055Z,26.33
2023-04-10T23:53:44.882Z,26.13
2023-04-10T23:56:12.375Z,24.23
2023-04-10T23:58:40.066Z,24.08
